Time;durP1;ratioP1;P1;durP2;ratioP2;P2;SDS_P1;SDS_P2;PMS_P1;PMS_P2;Temp;Humidity;BMP_temperature;BMP_pressure;BME280_temperature;BME280_humidity;BME280_pressure;Samples;Min_cycle;Max_cycle;Signal;HPM_P1;HPM_P2
2022/01/06 00:04:32;;;;;;;9.47;1.97;;;;;4.10;101137.00;;;;9850544;30;20207;-80
2022/01/06 00:09:34;;;;;;;11.50;2.47;;;;;4.10;101156.00;;;;9911284;29;20207;-79
2022/01/06 00:14:57;;;;;;;16.20;2.43;;;;;4.00;101160.00;;;;9931553;29;20223;-79
2022/01/06 00:25:19;;;;;;;11.07;1.97;;;;;3.80;101151.00;;;;9930919;29;20210;-80
2022/01/06 00:30:21;;;;;;;11.07;1.80;;;;;3.70;101160.00;;;;9910444;29;20211;-79
2022/01/06 00:35:23;;;;;;;12.63;2.13;;;;;3.70;101160.00;;;;9864565;30;20220;-79
2022/01/06 00:40:25;;;;;;;12.40;2.77;;;;;3.70;101171.00;;;;9881488;30;20280;-79
2022/01/06 00:45:27;;;;;;;8.50;2.00;;;;;3.60;101170.00;;;;9893588;30;20188;-79
2022/01/06 00:50:28;;;;;;;11.77;2.23;;;;;3.70;101171.00;;;;9893409;30;20787;-79
2022/01/06 00:55:35;;;;;;;12.33;2.90;;;;;3.70;101177.00;;;;9908145;29;20289;-79
2022/01/06 01:00:41;;;;;;;8.30;1.90;;;;;3.60;101178.00;;;;9893417;30;20208;-80
2022/01/06 01:05:45;;;;;;;11.43;2.30;;;;;3.40;101177.00;;;;9895069;29;20222;-80
2022/01/06 01:10:49;;;;;;;7.73;2.33;;;;;3.30;101178.00;;;;9889433;30;20756;-79
2022/01/06 01:15:54;;;;;;;10.87;3.60;;;;;3.20;101182.00;;;;9899244;30;20219;-80
2022/01/06 01:20:56;;;;;;;12.40;2.60;;;;;3.00;101183.00;;;;9913083;29;20334;-79
2022/01/06 01:25:58;;;;;;;12.63;2.10;;;;;2.90;101190.00;;;;9889240;29;20195;-79
2022/01/06 01:31:19;;;;;;;11.13;2.77;;;;;3.00;101207.00;;;;9896836;29;20203;-80
2022/01/06 01:36:21;;;;;;;11.20;2.83;;;;;3.20;101233.00;;;;9914650;30;20280;-79
2022/01/06 01:41:23;;;;;;;14.53;3.67;;;;;3.30;101230.00;;;;9893879;30;20216;-80
2022/01/06 01:46:28;;;;;;;17.17;3.30;;;;;3.40;101234.00;;;;9883693;30;20245;-81
2022/01/06 01:51:31;;;;;;;7.90;3.03;;;;;3.40;101228.00;;;;9884390;30;20239;-82
2022/01/06 01:56:33;;;;;;;10.13;3.83;;;;;3.30;101213.00;;;;9884187;30;20286;-82
2022/01/06 02:01:35;;;;;;;13.83;3.60;;;;;3.30;101219.00;;;;9884663;29;20200;-82
2022/01/06 02:06:37;;;;;;;12.00;4.27;;;;;3.30;101214.00;;;;9884023;30;20212;-82
2022/01/06 02:11:39;;;;;;;9.43;5.33;;;;;3.40;101219.00;;;;9927791;29;20211;-81
2022/01/06 02:16:41;;;;;;;14.43;5.37;;;;;3.40;101233.00;;;;9920646;29;20264;-82
2022/01/06 02:21:43;;;;;;;15.23;6.40;;;;;3.40;101248.00;;;;9934052;29;20338;-82
2022/01/06 02:26:45;;;;;;;24.07;7.63;;;;;3.50;101243.00;;;;9921541;29;20252;-81
2022/01/06 02:31:47;;;;;;;19.27;6.90;;;;;3.50;101255.00;;;;9920316;29;20198;-81
2022/01/06 02:36:49;;;;;;;18.17;7.23;;;;;3.60;101246.00;;;;9885988;29;20226;-81
2022/01/06 02:41:51;;;;;;;15.37;6.20;;;;;3.60;101241.00;;;;9917909;29;21027;-81
2022/01/06 02:46:54;;;;;;;23.63;6.63;;;;;3.60;101232.00;;;;9919642;29;20224;-81
2022/01/06 02:51:56;;;;;;;23.00;6.13;;;;;3.60;101244.00;;;;9904647;29;20226;-81
2022/01/06 02:56:58;;;;;;;18.17;5.30;;;;;3.60;101245.00;;;;9941555;29;20574;-80
2022/01/06 03:02:00;;;;;;;18.40;5.30;;;;;3.50;101226.00;;;;9955751;29;20199;-81
2022/01/06 03:07:03;;;;;;;12.03;3.80;;;;;3.50;101215.00;;;;9970624;29;20651;-81
2022/01/06 03:12:10;;;;;;;12.70;3.13;;;;;3.40;101221.00;;;;9904197;29;20285;-81
2022/01/06 03:17:12;;;;;;;10.07;2.63;;;;;3.30;101218.00;;;;9903029;29;20204;-81
2022/01/06 03:22:14;;;;;;;14.10;2.77;;;;;3.30;101235.00;;;;9903393;29;20226;-81
2022/01/06 03:27:16;;;;;;;9.13;2.87;;;;;3.30;101230.00;;;;9918047;29;20210;-80
2022/01/06 03:32:19;;;;;;;14.63;2.97;;;;;3.30;101238.00;;;;9913536;29;20216;-80
2022/01/06 03:37:21;;;;;;;11.27;2.80;;;;;3.30;101245.00;;;;9881997;29;20207;-81
2022/01/06 03:42:23;;;;;;;16.87;3.47;;;;;3.30;101254.00;;;;9917814;29;20203;-81
2022/01/06 03:47:25;;;;;;;16.77;3.70;;;;;3.30;101263.00;;;;9917673;29;20199;-82
2022/01/06 03:52:27;;;;;;;16.90;3.67;;;;;3.30;101274.00;;;;9932111;29;20271;-81
2022/01/06 03:57:29;;;;;;;13.93;3.67;;;;;3.20;101275.00;;;;9866248;30;20208;-81
2022/01/06 04:02:31;;;;;;;12.03;2.80;;;;;3.20;101272.00;;;;9865555;29;20207;-80
2022/01/06 04:07:33;;;;;;;15.03;3.17;;;;;3.20;101272.00;;;;9865651;30;20195;-81
2022/01/06 04:12:36;;;;;;;14.47;3.00;;;;;3.20;101278.00;;;;9894598;30;20219;-81
2022/01/06 04:17:42;;;;;;;25.33;3.97;;;;;3.30;101283.00;;;;9909751;29;20258;-80
2022/01/06 04:22:44;;;;;;;18.30;4.37;;;;;3.30;101282.00;;;;9865502;29;20224;-80
2022/01/06 04:27:46;;;;;;;17.87;5.90;;;;;3.30;101272.00;;;;9864854;30;20319;-81
2022/01/06 04:32:48;;;;;;;18.47;5.40;;;;;3.30;101286.00;;;;9865206;30;20227;-81
2022/01/06 04:37:50;;;;;;;14.43;5.60;;;;;3.30;101289.00;;;;9879958;30;20290;-82
2022/01/06 04:42:52;;;;;;;17.03;5.47;;;;;3.30;101292.00;;;;9884044;30;20212;-81
2022/01/06 04:47:53;;;;;;;15.43;5.03;;;;;3.20;101303.00;;;;9871751;30;20215;-82
2022/01/06 04:52:55;;;;;;;15.30;5.50;;;;;3.10;101296.00;;;;9870835;30;20272;-81
2022/01/06 04:57:57;;;;;;;14.80;5.00;;;;;3.10;101306.00;;;;9901065;30;20198;-81
2022/01/06 05:02:59;;;;;;;16.27;6.17;;;;;3.10;101307.00;;;;9870324;29;20203;-81
2022/01/06 05:08:01;;;;;;;20.00;6.17;;;;;3.00;101306.00;;;;9906648;29;20218;-81
2022/01/06 05:13:03;;;;;;;21.00;5.97;;;;;3.00;101306.00;;;;9921454;29;20215;-81
2022/01/06 05:18:05;;;;;;;20.13;6.20;;;;;2.90;101314.00;;;;9908063;29;20199;-81
2022/01/06 05:23:08;;;;;;;17.53;5.97;;;;;2.90;101321.00;;;;9922026;29;20640;-81
2022/01/06 05:28:10;;;;;;;20.23;6.00;;;;;2.80;101318.00;;;;9922407;29;20203;-81
2022/01/06 05:33:12;;;;;;;17.43;6.40;;;;;2.80;101321.00;;;;9922031;29;20280;-81
2022/01/06 05:38:14;;;;;;;25.57;6.77;;;;;2.80;101319.00;;;;9936894;29;20214;-81
2022/01/06 05:43:19;;;;;;;18.60;6.30;;;;;2.80;101341.00;;;;9921517;29;20256;-81
2022/01/06 05:48:22;;;;;;;19.10;6.67;;;;;2.80;101333.00;;;;9921424;29;20202;-81
2022/01/06 05:53:24;;;;;;;13.43;7.10;;;;;2.90;101342.00;;;;9905561;29;20239;-81
2022/01/06 05:58:26;;;;;;;25.63;5.87;;;;;2.90;101351.00;;;;9899011;30;20218;-81
2022/01/06 06:03:28;;;;;;;20.03;6.20;;;;;2.90;101341.00;;;;9884044;29;20748;-81
2022/01/06 06:08:30;;;;;;;20.73;5.57;;;;;2.90;101345.00;;;;9894091;29;20215;-81
2022/01/06 06:13:33;;;;;;;16.10;6.40;;;;;2.90;101341.00;;;;9920239;29;20590;-81
2022/01/06 06:18:34;;;;;;;25.23;5.77;;;;;2.80;101346.00;;;;9920966;29;20203;-81
2022/01/06 06:23:36;;;;;;;23.30;5.33;;;;;2.70;101348.00;;;;9935076;29;20287;-81
2022/01/06 06:28:38;;;;;;;23.63;6.70;;;;;2.60;101365.00;;;;9934750;29;20207;-81
2022/01/06 06:33:40;;;;;;;21.97;5.57;;;;;2.50;101361.00;;;;9905310;29;20272;-81
2022/01/06 06:38:42;;;;;;;22.63;5.37;;;;;2.50;101375.00;;;;9934598;29;20218;-81
2022/01/06 06:43:44;;;;;;;20.60;5.23;;;;;2.30;101381.00;;;;9934804;29;20199;-81
2022/01/06 06:48:46;;;;;;;17.27;4.97;;;;;2.20;101386.00;;;;9905360;29;20199;-80
2022/01/06 06:53:48;;;;;;;16.83;5.20;;;;;2.20;101386.00;;;;9892084;30;20227;-80
2022/01/06 06:58:50;;;;;;;14.80;5.10;;;;;2.20;101394.00;;;;9891049;29;20210;-80
2022/01/06 07:03:52;;;;;;;18.73;5.67;;;;;2.10;101398.00;;;;9878918;29;20207;-81
2022/01/06 07:08:54;;;;;;;21.03;6.13;;;;;2.10;101408.00;;;;9897763;29;20675;-80
2022/01/06 07:13:56;;;;;;;14.53;5.13;;;;;2.10;101411.00;;;;9917833;29;20279;-80
2022/01/06 07:18:58;;;;;;;23.93;5.30;;;;;2.00;101419.00;;;;9932971;29;20199;-80
2022/01/06 07:24:00;;;;;;;20.83;5.60;;;;;1.90;101421.00;;;;9932340;29;20231;-80
2022/01/06 07:29:03;;;;;;;24.20;6.00;;;;;1.80;101425.00;;;;9932656;29;20171;-80
2022/01/06 07:34:05;;;;;;;15.53;5.80;;;;;1.80;101430.00;;;;9932296;29;20220;-80
2022/01/06 07:39:07;;;;;;;17.50;6.03;;;;;1.80;101430.00;;;;9887673;29;20215;-80
2022/01/06 07:44:08;;;;;;;23.03;6.47;;;;;1.70;101433.00;;;;9879452;30;20614;-81
2022/01/06 07:49:11;;;;;;;23.90;6.60;;;;;1.70;101432.00;;;;9879653;30;20211;-80
2022/01/06 07:54:12;;;;;;;21.17;6.13;;;;;1.70;101437.00;;;;9890247;30;20223;-80
2022/01/06 07:59:14;;;;;;;17.30;6.33;;;;;1.80;101434.00;;;;9894494;30;20268;-80
2022/01/06 08:04:16;;;;;;;26.00;7.63;;;;;1.90;101431.00;;;;9880313;29;20278;-80
2022/01/06 08:09:18;;;;;;;21.40;6.73;;;;;1.90;101434.00;;;;9895442;29;20582;-80
2022/01/06 08:14:20;;;;;;;21.50;7.60;;;;;2.00;101448.00;;;;9931930;29;20644;-80
2022/01/06 08:19:22;;;;;;;16.03;7.20;;;;;2.00;101446.00;;;;9909110;29;20256;-81
2022/01/06 08:24:24;;;;;;;17.30;7.00;;;;;2.10;101459.00;;;;9951688;29;20778;-80
2022/01/06 08:29:26;;;;;;;16.50;6.23;;;;;2.20;101472.00;;;;9952343;29;20609;-80
2022/01/06 08:34:28;;;;;;;16.30;6.73;;;;;2.30;101475.00;;;;9900863;29;20265;-80
2022/01/06 08:39:30;;;;;;;14.90;6.70;;;;;2.40;101475.00;;;;9905737;29;20668;-80
2022/01/06 08:44:32;;;;;;;30.77;11.50;;;;;2.60;101479.00;;;;9885935;30;20204;-80
2022/01/06 08:49:35;;;;;;;25.80;10.07;;;;;2.80;101490.00;;;;9886551;30;20210;-80
2022/01/06 08:54:38;;;;;;;23.23;8.70;;;;;3.00;101491.00;;;;9872739;29;20215;-80
2022/01/06 08:59:40;;;;;;;32.43;9.13;;;;;3.20;101498.00;;;;9922359;29;20196;-80
2022/01/06 09:04:42;;;;;;;23.57;9.57;;;;;3.50;101512.00;;;;9899553;30;20204;-80
2022/01/06 09:09:44;;;;;;;18.80;7.83;;;;;4.00;101527.00;;;;9878777;30;20211;-80
2022/01/06 09:14:47;;;;;;;18.83;8.20;;;;;4.40;101519.00;;;;9911718;29;20223;-80
2022/01/06 09:19:49;;;;;;;16.27;7.33;;;;;4.70;101535.00;;;;9878025;30;20207;-80
2022/01/06 09:24:51;;;;;;;16.40;5.40;;;;;4.90;101536.00;;;;9883339;30;20224;-80
2022/01/06 09:29:53;;;;;;;16.50;5.73;;;;;5.10;101525.00;;;;9868811;30;20220;-80
2022/01/06 09:34:55;;;;;;;17.00;5.00;;;;;5.40;101532.00;;;;9869075;30;20287;-80
2022/01/06 09:39:57;;;;;;;14.07;4.97;;;;;5.60;101535.00;;;;9889172;29;20211;-80
2022/01/06 09:44:59;;;;;;;18.40;7.57;;;;;5.80;101534.00;;;;9920003;29;20904;-80
2022/01/06 09:50:03;;;;;;;15.57;6.60;;;;;6.00;101528.00;;;;9912582;29;20734;-80
2022/01/06 09:55:06;;;;;;;14.10;4.30;;;;;6.30;101535.00;;;;9897435;29;20230;-80
2022/01/06 10:00:10;;;;;;;9.00;3.50;;;;;6.60;101533.00;;;;9919173;29;20195;-80
2022/01/06 10:05:15;;;;;;;14.80;4.60;;;;;6.90;101542.00;;;;9919200;29;20199;-80
2022/01/06 10:10:22;;;;;;;11.53;4.97;;;;;7.20;101540.00;;;;9916181;29;20209;-80
2022/01/06 10:15:27;;;;;;;11.20;3.67;;;;;7.40;101532.00;;;;9917710;29;20222;-80
2022/01/06 10:20:29;;;;;;;16.30;4.57;;;;;6.60;101532.00;;;;9890552;29;20764;-80
2022/01/06 10:25:38;;;;;;;10.57;4.00;;;;;6.10;101533.00;;;;9917574;29;20264;-80
2022/01/06 10:30:55;;;;;;;12.50;3.57;;;;;6.10;101543.00;;;;9902648;29;20203;-79
2022/01/06 10:36:06;;;;;;;11.23;3.80;;;;;6.20;101528.00;;;;9912630;29;20215;-80
2022/01/06 10:41:16;;;;;;;14.90;5.00;;;;;6.30;101539.00;;;;9916580;29;20218;-79
2022/01/06 10:46:40;;;;;;;15.13;4.87;;;;;6.40;101536.00;;;;9932230;29;20202;-80
2022/01/06 10:51:49;;;;;;;11.47;4.00;;;;;6.40;101540.00;;;;9916789;29;20225;-79
2022/01/06 10:57:02;;;;;;;15.70;4.10;;;;;6.50;101539.00;;;;9883960;29;20230;-80
2022/01/06 11:02:05;;;;;;;14.03;4.10;;;;;6.60;101521.00;;;;9888101;29;20297;-80
2022/01/06 11:07:08;;;;;;;16.07;5.77;;;;;6.70;101527.00;;;;9914571;29;20230;-79
2022/01/06 11:12:30;;;;;;;11.90;5.63;;;;;6.90;101519.00;;;;9905736;29;20231;-79
2022/01/06 11:17:32;;;;;;;16.03;7.00;;;;;7.00;101515.00;;;;9901106;29;20278;-80
2022/01/06 11:22:46;;;;;;;19.17;6.40;;;;;7.00;101514.00;;;;9892024;29;20295;-80
2022/01/06 11:27:49;;;;;;;19.30;7.70;;;;;7.10;101518.00;;;;9924823;29;20671;-80
2022/01/06 11:32:57;;;;;;;22.60;7.53;;;;;7.10;101509.00;;;;9911207;29;20199;-80
2022/01/06 11:38:02;;;;;;;14.97;5.80;;;;;7.10;101508.00;;;;9931023;29;20202;-80
2022/01/06 11:43:04;;;;;;;17.47;6.80;;;;;7.20;101502.00;;;;9886239;29;20256;-79
2022/01/06 11:48:09;;;;;;;20.70;6.93;;;;;7.60;101491.00;;;;9961354;29;20194;-80
2022/01/06 11:53:11;;;;;;;20.60;6.97;;;;;7.70;101493.00;;;;9930145;29;20203;-80
2022/01/06 11:58:22;;;;;;;18.67;6.40;;;;;8.30;101480.00;;;;9894459;29;20237;-80
2022/01/06 12:03:35;;;;;;;20.47;6.40;;;;;8.40;101475.00;;;;9882328;29;20234;-79
2022/01/06 12:08:40;;;;;;;14.00;6.73;;;;;8.20;101463.00;;;;9886987;29;20290;-80
2022/01/06 12:13:44;;;;;;;21.43;7.57;;;;;8.20;101463.00;;;;9904082;29;20253;-80
2022/01/06 12:18:46;;;;;;;23.67;7.20;;;;;8.20;101456.00;;;;9930076;29;20206;-80
2022/01/06 12:23:48;;;;;;;18.27;7.63;;;;;8.20;101452.00;;;;9915231;29;20271;-79
2022/01/06 12:28:50;;;;;;;22.10;7.30;;;;;8.20;101444.00;;;;9889126;30;20215;-79
2022/01/06 12:33:58;;;;;;;21.07;7.93;;;;;8.10;101450.00;;;;9892550;30;20220;-79
2022/01/06 12:39:11;;;;;;;17.73;8.07;;;;;8.10;101439.00;;;;9937473;29;20207;-79
2022/01/06 12:44:23;;;;;;;21.83;7.13;;;;;7.90;101444.00;;;;9914103;29;20199;-79
2022/01/06 12:49:28;;;;;;;14.87;7.70;;;;;7.80;101438.00;;;;9863300;30;20597;-80
2022/01/06 12:54:33;;;;;;;18.57;8.03;;;;;7.80;101446.00;;;;9877606;30;20681;-79
2022/01/06 12:59:39;;;;;;;23.10;8.50;;;;;7.80;101436.00;;;;9885579;30;20322;-79
2022/01/06 13:04:46;;;;;;;22.33;8.20;;;;;7.70;101441.00;;;;9882830;30;20196;-80
2022/01/06 13:09:56;;;;;;;21.07;7.63;;;;;7.70;101439.00;;;;9901887;29;20199;-79
2022/01/06 13:14:58;;;;;;;20.20;7.63;;;;;7.60;101435.00;;;;9858995;29;20276;-79
2022/01/06 13:20:08;;;;;;;25.57;9.30;;;;;7.40;101436.00;;;;9935922;29;20203;-80
2022/01/06 13:25:12;;;;;;;23.87;10.37;;;;;7.20;101442.00;;;;9920475;29;20285;-79
2022/01/06 13:30:14;;;;;;;18.70;8.17;;;;;7.10;101440.00;;;;9868550;30;20211;-79
2022/01/06 13:35:16;;;;;;;26.27;10.70;;;;;7.20;101431.00;;;;9882869;29;20223;-80
2022/01/06 13:40:18;;;;;;;20.70;9.20;;;;;7.10;101424.00;;;;9920257;29;20203;-79
2022/01/06 13:56:14;;;;;;;19.60;6.90;;;;;6.70;101411.00;;;;9919178;29;20683;-79
2022/01/06 14:01:19;;;;;;;21.33;6.27;;;;;6.60;101403.00;;;;9919024;29;20199;-79
2022/01/06 14:06:22;;;;;;;23.73;6.40;;;;;6.60;101404.00;;;;9919311;29;20289;-79
2022/01/06 14:11:27;;;;;;;17.67;5.87;;;;;6.40;101392.00;;;;9916947;29;20698;-80
2022/01/06 14:16:29;;;;;;;16.73;5.60;;;;;6.20;101403.00;;;;9851841;30;20235;-79
2022/01/06 14:21:31;;;;;;;17.23;5.37;;;;;5.90;101399.00;;;;9898747;29;20718;-79
2022/01/06 14:26:33;;;;;;;16.40;4.73;;;;;5.70;101398.00;;;;9903536;29;20199;-80
2022/01/06 14:31:35;;;;;;;18.20;4.77;;;;;5.60;101387.00;;;;9918263;29;20733;-79
2022/01/06 14:36:36;;;;;;;14.93;5.00;;;;;5.40;101386.00;;;;9902071;29;20217;-79
2022/01/06 14:41:38;;;;;;;16.83;5.17;;;;;5.30;101383.00;;;;9866499;30;20208;-79
2022/01/06 14:46:41;;;;;;;14.03;4.47;;;;;5.20;101386.00;;;;9880517;30;20208;-81
2022/01/06 14:51:47;;;;;;;10.07;3.17;;;;;5.10;101379.00;;;;9928693;29;20203;-80
2022/01/06 14:56:49;;;;;;;11.97;3.47;;;;;5.00;101368.00;;;;9911914;29;20272;-79
2022/01/06 15:01:53;;;;;;;17.57;3.60;;;;;4.90;101364.00;;;;9896198;29;20245;-80
2022/01/06 15:06:55;;;;;;;13.47;3.50;;;;;4.80;101364.00;;;;9891921;29;20203;-79
2022/01/06 15:11:57;;;;;;;12.70;3.63;;;;;4.70;101359.00;;;;9883607;29;20204;-80
2022/01/06 15:16:59;;;;;;;15.53;3.73;;;;;4.50;101355.00;;;;9902057;29;20215;-79
2022/01/06 15:22:01;;;;;;;17.60;3.83;;;;;4.40;101356.00;;;;9892580;29;20239;-80
2022/01/06 15:27:04;;;;;;;18.13;3.63;;;;;4.20;101350.00;;;;9885292;29;20291;-80
2022/01/06 15:32:06;;;;;;;13.70;3.63;;;;;4.10;101342.00;;;;9859731;29;20262;-79
2022/01/06 15:37:08;;;;;;;11.57;2.30;;;;;4.00;101358.00;;;;9891948;29;21030;-80
2022/01/06 15:42:10;;;;;;;12.33;2.77;;;;;3.80;101359.00;;;;9894538;29;20587;-80
2022/01/06 15:47:12;;;;;;;16.03;3.47;;;;;3.70;101359.00;;;;9913147;29;20229;-80
2022/01/06 15:52:14;;;;;;;9.57;3.73;;;;;3.60;101372.00;;;;9903459;29;20207;-79
2022/01/06 15:57:17;;;;;;;15.73;3.83;;;;;3.60;101381.00;;;;9870566;29;20211;-80
2022/01/06 16:07:40;;;;;;;15.20;4.27;;;;;3.30;101381.00;;;;9913116;29;20202;-80
2022/01/06 16:12:43;;;;;;;13.87;4.17;;;;;3.20;101384.00;;;;9879596;30;20202;-79
2022/01/06 16:17:48;;;;;;;21.10;5.17;;;;;3.10;101376.00;;;;9868495;30;20227;-80
2022/01/06 16:22:52;;;;;;;19.67;5.40;;;;;3.10;101377.00;;;;9863679;29;20227;-79
2022/01/06 16:27:54;;;;;;;15.37;4.47;;;;;3.00;101379.00;;;;9882590;29;20207;-79
2022/01/06 16:32:56;;;;;;;17.93;5.47;;;;;3.00;101384.00;;;;9899074;29;20196;-80
2022/01/06 16:37:57;;;;;;;21.57;5.10;;;;;3.00;101392.00;;;;9877010;29;20355;-79
2022/01/06 16:43:00;;;;;;;19.23;5.03;;;;;3.00;101393.00;;;;9924815;29;20200;-79
2022/01/06 16:48:03;;;;;;;17.33;5.33;;;;;3.00;101387.00;;;;9897517;29;20257;-80
2022/01/06 16:53:05;;;;;;;12.87;5.50;;;;;3.00;101398.00;;;;9936714;29;20209;-80
2022/01/06 16:58:09;;;;;;;19.20;6.30;;;;;2.90;101385.00;;;;9925396;29;20219;-80
2022/01/06 17:03:11;;;;;;;23.50;6.13;;;;;2.90;101384.00;;;;9917540;29;20203;-79
2022/01/06 17:08:12;;;;;;;15.63;6.80;;;;;2.90;101389.00;;;;9921423;29;20218;-79
2022/01/06 17:13:14;;;;;;;18.77;7.73;;;;;2.90;101382.00;;;;9921828;29;20671;-79
2022/01/06 17:18:17;;;;;;;16.77;6.57;;;;;2.90;101379.00;;;;9900911;29;20280;-79
2022/01/06 17:23:19;;;;;;;19.00;7.90;;;;;2.90;101376.00;;;;9878481;29;20239;-79
2022/01/06 17:28:21;;;;;;;28.03;8.53;;;;;2.90;101382.00;;;;9883154;30;20257;-80
2022/01/06 17:33:24;;;;;;;17.83;7.83;;;;;2.90;101380.00;;;;9884120;30;20229;-78
2022/01/06 17:38:26;;;;;;;18.83;8.47;;;;;2.90;101363.00;;;;9878104;29;20223;-79
2022/01/06 17:43:28;;;;;;;16.67;7.93;;;;;2.80;101359.00;;;;9935270;29;20195;-80
2022/01/06 17:48:30;;;;;;;16.10;7.73;;;;;2.90;101348.00;;;;9919347;29;20196;-79
2022/01/06 17:53:32;;;;;;;18.03;8.23;;;;;2.90;101359.00;;;;9891236;29;20601;-80
2022/01/06 17:58:35;;;;;;;21.37;8.93;;;;;2.90;101348.00;;;;9931403;29;20560;-80
2022/01/06 18:03:37;;;;;;;22.73;8.87;;;;;2.80;101345.00;;;;9889939;29;20672;-80
2022/01/06 18:14:04;;;;;;;25.87;10.30;;;;;2.90;101336.00;;;;9868114;30;20204;-81
2022/01/06 18:19:07;;;;;;;22.57;10.30;;;;;2.90;101332.00;;;;9867764;30;20233;-80
2022/01/06 18:24:09;;;;;;;23.57;10.13;;;;;2.80;101333.00;;;;9852690;30;20588;-80
2022/01/06 18:29:11;;;;;;;20.93;7.60;;;;;2.80;101326.00;;;;9857579;30;20261;-80
2022/01/06 18:34:14;;;;;;;24.43;8.47;;;;;2.80;101324.00;;;;9896865;30;20215;-80
2022/01/06 18:39:16;;;;;;;19.70;8.83;;;;;2.90;101328.00;;;;9896973;29;20922;-80
2022/01/06 18:44:18;;;;;;;26.53;9.83;;;;;2.90;101331.00;;;;9904015;29;20627;-79
2022/01/06 18:49:20;;;;;;;33.67;10.37;;;;;2.90;101320.00;;;;9918979;29;20207;-80
2022/01/06 18:54:22;;;;;;;22.50;9.10;;;;;2.90;101307.00;;;;9903548;29;20691;-80
2022/01/06 18:59:24;;;;;;;24.13;7.73;;;;;2.90;101309.00;;;;9925918;29;20677;-81
2022/01/06 19:04:26;;;;;;;21.13;8.73;;;;;3.00;101303.00;;;;9980753;29;20293;-80
2022/01/06 19:09:27;;;;;;;16.27;7.90;;;;;3.00;101291.00;;;;9883258;29;20211;-80
2022/01/06 19:14:49;;;;;;;19.40;7.87;;;;;3.00;101289.00;;;;9917346;29;20657;-80
2022/01/06 19:19:51;;;;;;;26.27;7.13;;;;;3.00;101270.00;;;;9902269;29;20261;-80
2022/01/06 19:24:53;;;;;;;17.77;7.23;;;;;3.00;101263.00;;;;9917412;29;20227;-80
2022/01/06 19:29:55;;;;;;;16.90;6.07;;;;;3.00;101254.00;;;;9917506;29;20260;-80
2022/01/06 19:35:24;;;;;;;14.73;6.37;;;;;3.00;101246.00;;;;9902024;29;20305;-80
2022/01/06 19:40:26;;;;;;;20.47;6.73;;;;;3.00;101238.00;;;;9916765;29;20265;-80
2022/01/06 19:45:30;;;;;;;13.47;5.40;;;;;3.00;101233.00;;;;9931627;29;20199;-80
2022/01/06 19:50:35;;;;;;;14.47;5.30;;;;;3.00;101236.00;;;;9916682;29;20203;-80
2022/01/06 19:55:38;;;;;;;15.50;5.50;;;;;3.00;101218.00;;;;9931200;29;20230;-80
2022/01/06 20:00:41;;;;;;;13.63;4.77;;;;;3.10;101220.00;;;;9916430;29;20206;-80
2022/01/06 20:05:44;;;;;;;16.70;5.30;;;;;3.10;101205.00;;;;9946099;29;20195;-80
2022/01/06 20:10:46;;;;;;;8.63;4.57;;;;;3.00;101205.00;;;;9930905;29;20207;-80
2022/01/06 20:15:50;;;;;;;10.03;5.03;;;;;3.00;101201.00;;;;9923495;29;20287;-81
2022/01/06 20:20:52;;;;;;;11.43;5.60;;;;;3.00;101199.00;;;;9923557;29;20215;-80
2022/01/06 20:25:54;;;;;;;19.20;6.83;;;;;3.10;101202.00;;;;9905384;29;20239;-80
2022/01/06 20:30:56;;;;;;;12.13;5.10;;;;;3.10;101199.00;;;;9900167;30;20260;-80
2022/01/06 20:36:13;;;;;;;12.97;4.57;;;;;3.10;101192.00;;;;9912124;29;20212;-79
2022/01/06 20:41:15;;;;;;;11.93;4.37;;;;;3.10;101190.00;;;;9928811;29;20199;-80
2022/01/06 20:46:20;;;;;;;11.53;5.00;;;;;3.10;101184.00;;;;9891175;29;20208;-80
2022/01/06 20:51:24;;;;;;;12.13;4.67;;;;;3.10;101179.00;;;;9885118;30;20211;-80
2022/01/06 20:56:26;;;;;;;6.57;3.83;;;;;3.10;101177.00;;;;9870481;30;20327;-80
2022/01/06 21:01:28;;;;;;;13.00;4.37;;;;;3.10;101167.00;;;;9869917;30;20200;-80
2022/01/06 21:06:30;;;;;;;13.20;4.83;;;;;3.20;101169.00;;;;9899198;30;20199;-80
2022/01/06 21:11:34;;;;;;;9.57;4.10;;;;;3.20;101154.00;;;;9864953;30;20223;-79
2022/01/06 21:16:36;;;;;;;10.83;4.37;;;;;3.30;101160.00;;;;9913892;29;20227;-79
2022/01/06 21:21:41;;;;;;;8.97;4.40;;;;;3.30;101161.00;;;;9869058;29;20224;-79
2022/01/06 21:26:44;;;;;;;13.73;3.93;;;;;3.30;101154.00;;;;9883444;30;20208;-79
2022/01/06 21:31:46;;;;;;;12.13;4.13;;;;;3.40;101156.00;;;;9883076;30;20204;-80
2022/01/06 21:36:49;;;;;;;8.43;4.17;;;;;3.40;101146.00;;;;9869036;30;20227;-80
2022/01/06 21:41:51;;;;;;;6.77;3.63;;;;;3.40;101128.00;;;;9912723;30;20204;-80
2022/01/06 21:46:53;;;;;;;8.33;4.17;;;;;3.40;101117.00;;;;9883653;30;20195;-80
2022/01/06 21:51:55;;;;;;;10.77;3.57;;;;;3.40;101103.00;;;;9883584;30;20661;-79
2022/01/06 21:56:57;;;;;;;14.70;4.17;;;;;3.40;101085.00;;;;9912988;29;20706;-80
2022/01/06 22:01:59;;;;;;;10.30;3.83;;;;;3.50;101089.00;;;;9949941;29;20203;-79
2022/01/06 22:07:03;;;;;;;8.40;4.07;;;;;3.50;101072.00;;;;9920048;29;20256;-80
2022/01/06 22:12:06;;;;;;;7.83;4.20;;;;;3.50;101066.00;;;;9911529;29;20212;-79
2022/01/06 22:17:08;;;;;;;9.47;3.37;;;;;3.60;101056.00;;;;9912267;30;20224;-79
2022/01/06 22:22:10;;;;;;;6.73;3.57;;;;;3.60;101050.00;;;;9896063;29;20259;-79
2022/01/06 22:27:12;;;;;;;7.73;4.03;;;;;3.60;101038.00;;;;9897198;30;20257;-79
2022/01/06 22:32:14;;;;;;;11.77;2.90;;;;;3.70;101033.00;;;;9911585;30;20203;-80
2022/01/06 22:37:16;;;;;;;6.57;3.30;;;;;3.70;101031.00;;;;9881084;30;20219;-80
2022/01/06 22:42:18;;;;;;;6.60;2.63;;;;;3.70;101038.00;;;;9881954;30;20207;-80
2022/01/06 22:47:20;;;;;;;6.27;2.83;;;;;3.80;101038.00;;;;9896215;30;20235;-80
2022/01/06 22:52:22;;;;;;;4.30;2.63;;;;;3.80;101028.00;;;;9881199;30;20211;-79
2022/01/06 22:57:25;;;;;;;8.07;2.70;;;;;3.80;101023.00;;;;9910972;29;20223;-81
2022/01/06 23:02:27;;;;;;;5.60;2.60;;;;;3.80;101017.00;;;;9894920;29;20215;-80
2022/01/06 23:07:29;;;;;;;6.50;2.90;;;;;3.80;101005.00;;;;9939810;29;20252;-79
2022/01/06 23:12:31;;;;;;;6.43;3.67;;;;;3.80;100996.00;;;;9947740;29;20667;-79
2022/01/06 23:17:33;;;;;;;5.20;2.37;;;;;3.90;100991.00;;;;9932780;29;20260;-79
2022/01/06 23:22:35;;;;;;;4.37;2.50;;;;;3.90;100988.00;;;;9916117;29;20230;-79
2022/01/06 23:27:38;;;;;;;5.17;2.10;;;;;4.00;100996.00;;;;9917424;29;20268;-80
2022/01/06 23:32:41;;;;;;;4.60;2.33;;;;;4.00;100966.00;;;;9916955;29;20271;-80
2022/01/06 23:37:45;;;;;;;7.73;2.20;;;;;4.00;100968.00;;;;9897278;29;20259;-80
2022/01/06 23:42:48;;;;;;;4.43;1.80;;;;;4.00;100949.00;;;;9864757;30;20212;-79
2022/01/06 23:47:50;;;;;;;11.30;2.07;;;;;4.00;100943.00;;;;9879557;30;20196;-80
2022/01/06 23:52:54;;;;;;;7.27;2.07;;;;;4.00;100922.00;;;;9866587;30;20212;-79
2022/01/06 23:57:58;;;;;;;3.97;1.87;;;;;4.00;100921.00;;;;9864803;30;20223;-79
